sensor_id;sensor_type;location;lat;lon;timestamp;P1;durP1;ratioP1;P2;durP2;ratioP2
64467;SDS011;50853;46.836;16.820;2022-07-29T00:00:06;5.25;;;3.58;;
64467;SDS011;50853;46.836;16.820;2022-07-29T00:02:34;5.25;;;3.50;;
64467;SDS011;50853;46.836;16.820;2022-07-29T00:05:00;6.88;;;3.88;;
64467;SDS011;50853;46.836;16.820;2022-07-29T00:07:26;5.87;;;3.63;;
64467;SDS011;50853;46.836;16.820;2022-07-29T00:09:52;9.38;;;3.97;;
64467;SDS011;50853;46.836;16.820;2022-07-29T00:12:19;6.47;;;3.70;;
64467;SDS011;50853;46.836;16.820;2022-07-29T00:14:46;6.18;;;3.67;;
64467;SDS011;50853;46.836;16.820;2022-07-29T00:17:12;6.15;;;3.55;;
64467;SDS011;50853;46.836;16.820;2022-07-29T00:19:38;7.60;;;3.65;;
64467;SDS011;50853;46.836;16.820;2022-07-29T00:22:03;5.97;;;3.53;;
64467;SDS011;50853;46.836;16.820;2022-07-29T00:24:29;5.35;;;3.70;;
64467;SDS011;50853;46.836;16.820;2022-07-29T00:26:55;8.57;;;3.65;;
64467;SDS011;50853;46.836;16.820;2022-07-29T00:29:21;6.00;;;3.78;;
64467;SDS011;50853;46.836;16.820;2022-07-29T00:31:47;6.85;;;3.85;;
64467;SDS011;50853;46.836;16.820;2022-07-29T00:34:12;6.38;;;3.45;;
64467;SDS011;50853;46.836;16.820;2022-07-29T00:36:57;5.05;;;3.10;;
64467;SDS011;50853;46.836;16.820;2022-07-29T00:39:23;6.90;;;3.72;;
64467;SDS011;50853;46.836;16.820;2022-07-29T00:41:49;4.78;;;3.60;;
64467;SDS011;50853;46.836;16.820;2022-07-29T00:44:15;6.25;;;3.97;;
64467;SDS011;50853;46.836;16.820;2022-07-29T00:46:41;12.73;;;3.58;;
64467;SDS011;50853;46.836;16.820;2022-07-29T00:49:07;5.78;;;3.40;;
64467;SDS011;50853;46.836;16.820;2022-07-29T00:51:37;8.25;;;3.58;;
64467;SDS011;50853;46.836;16.820;2022-07-29T00:54:03;6.88;;;3.90;;
64467;SDS011;50853;46.836;16.820;2022-07-29T00:56:31;4.57;;;3.22;;
64467;SDS011;50853;46.836;16.820;2022-07-29T01:01:24;4.10;;;2.97;;
64467;SDS011;50853;46.836;16.820;2022-07-29T01:03:50;6.00;;;3.47;;
64467;SDS011;50853;46.836;16.820;2022-07-29T01:06:16;4.35;;;3.28;;
64467;SDS011;50853;46.836;16.820;2022-07-29T01:08:44;7.00;;;3.80;;
64467;SDS011;50853;46.836;16.820;2022-07-29T01:11:12;6.55;;;3.85;;
64467;SDS011;50853;46.836;16.820;2022-07-29T01:13:40;4.95;;;3.00;;
64467;SDS011;50853;46.836;16.820;2022-07-29T01:18:38;5.00;;;3.30;;
64467;SDS011;50853;46.836;16.820;2022-07-29T01:30:05;5.05;;;3.70;;
64467;SDS011;50853;46.836;16.820;2022-07-29T01:32:32;7.10;;;4.20;;
64467;SDS011;50853;46.836;16.820;2022-07-29T01:37:46;5.47;;;3.58;;
64467;SDS011;50853;46.836;16.820;2022-07-29T01:40:42;7.22;;;4.22;;
64467;SDS011;50853;46.836;16.820;2022-07-29T01:43:16;6.40;;;4.15;;
64467;SDS011;50853;46.836;16.820;2022-07-29T01:46:09;5.40;;;3.80;;
64467;SDS011;50853;46.836;16.820;2022-07-29T01:48:45;5.63;;;4.20;;
64467;SDS011;50853;46.836;16.820;2022-07-29T01:51:33;5.55;;;4.18;;
64467;SDS011;50853;46.836;16.820;2022-07-29T01:54:08;8.52;;;4.18;;
64467;SDS011;50853;46.836;16.820;2022-07-29T01:56:36;5.95;;;4.07;;
64467;SDS011;50853;46.836;16.820;2022-07-29T01:59:06;13.52;;;4.90;;
64467;SDS011;50853;46.836;16.820;2022-07-29T02:01:34;6.18;;;4.47;;
64467;SDS011;50853;46.836;16.820;2022-07-29T02:06:32;7.00;;;3.90;;
64467;SDS011;50853;46.836;16.820;2022-07-29T02:09:00;7.10;;;3.58;;
64467;SDS011;50853;46.836;16.820;2022-07-29T02:11:27;6.20;;;4.30;;
64467;SDS011;50853;46.836;16.820;2022-07-29T02:13:56;7.80;;;4.32;;
64467;SDS011;50853;46.836;16.820;2022-07-29T02:16:23;6.72;;;4.18;;
64467;SDS011;50853;46.836;16.820;2022-07-29T02:18:54;7.90;;;3.97;;
64467;SDS011;50853;46.836;16.820;2022-07-29T02:21:23;8.73;;;4.22;;
64467;SDS011;50853;46.836;16.820;2022-07-29T02:23:51;6.35;;;3.78;;
64467;SDS011;50853;46.836;16.820;2022-07-29T02:26:19;4.97;;;3.70;;
64467;SDS011;50853;46.836;16.820;2022-07-29T02:28:50;9.10;;;4.03;;
64467;SDS011;50853;46.836;16.820;2022-07-29T02:31:19;6.25;;;4.25;;
64467;SDS011;50853;46.836;16.820;2022-07-29T02:33:50;4.95;;;3.90;;
64467;SDS011;50853;46.836;16.820;2022-07-29T02:36:20;7.50;;;4.43;;
64467;SDS011;50853;46.836;16.820;2022-07-29T02:38:48;6.03;;;4.07;;
64467;SDS011;50853;46.836;16.820;2022-07-29T02:41:20;11.00;;;4.60;;
64467;SDS011;50853;46.836;16.820;2022-07-29T02:43:53;6.15;;;3.70;;
64467;SDS011;50853;46.836;16.820;2022-07-29T02:46:27;5.90;;;3.83;;
64467;SDS011;50853;46.836;16.820;2022-07-29T02:51:54;6.45;;;4.25;;
64467;SDS011;50853;46.836;16.820;2022-07-29T02:54:33;8.38;;;3.92;;
64467;SDS011;50853;46.836;16.820;2022-07-29T02:57:09;7.40;;;4.03;;
64467;SDS011;50853;46.836;16.820;2022-07-29T02:59:42;6.30;;;4.38;;
64467;SDS011;50853;46.836;16.820;2022-07-29T03:02:10;6.75;;;4.07;;
64467;SDS011;50853;46.836;16.820;2022-07-29T03:04:38;6.00;;;4.40;;
64467;SDS011;50853;46.836;16.820;2022-07-29T03:07:06;6.50;;;4.00;;
64467;SDS011;50853;46.836;16.820;2022-07-29T03:09:34;8.90;;;3.90;;
64467;SDS011;50853;46.836;16.820;2022-07-29T03:12:02;7.28;;;4.35;;
64467;SDS011;50853;46.836;16.820;2022-07-29T03:14:30;7.50;;;4.32;;
64467;SDS011;50853;46.836;16.820;2022-07-29T03:16:56;5.57;;;3.67;;
64467;SDS011;50853;46.836;16.820;2022-07-29T03:19:23;7.85;;;4.60;;
64467;SDS011;50853;46.836;16.820;2022-07-29T03:21:49;7.57;;;4.32;;
64467;SDS011;50853;46.836;16.820;2022-07-29T03:24:36;7.38;;;4.95;;
64467;SDS011;50853;46.836;16.820;2022-07-29T03:27:02;5.28;;;3.58;;
64467;SDS011;50853;46.836;16.820;2022-07-29T03:29:30;4.97;;;3.97;;
64467;SDS011;50853;46.836;16.820;2022-07-29T03:31:56;6.03;;;3.97;;
64467;SDS011;50853;46.836;16.820;2022-07-29T03:34:22;8.13;;;4.10;;
64467;SDS011;50853;46.836;16.820;2022-07-29T03:36:48;6.60;;;4.18;;
64467;SDS011;50853;46.836;16.820;2022-07-29T03:39:15;9.82;;;4.90;;
64467;SDS011;50853;46.836;16.820;2022-07-29T03:41:46;7.10;;;4.47;;
64467;SDS011;50853;46.836;16.820;2022-07-29T03:44:15;9.10;;;4.22;;
64467;SDS011;50853;46.836;16.820;2022-07-29T03:46:43;6.38;;;4.40;;
64467;SDS011;50853;46.836;16.820;2022-07-29T03:49:10;7.30;;;4.55;;
64467;SDS011;50853;46.836;16.820;2022-07-29T03:51:38;6.55;;;4.93;;
64467;SDS011;50853;46.836;16.820;2022-07-29T03:54:04;7.28;;;4.00;;
64467;SDS011;50853;46.836;16.820;2022-07-29T03:56:32;5.75;;;4.35;;
64467;SDS011;50853;46.836;16.820;2022-07-29T03:59:02;6.15;;;4.78;;
64467;SDS011;50853;46.836;16.820;2022-07-29T04:01:30;5.85;;;4.63;;
64467;SDS011;50853;46.836;16.820;2022-07-29T04:03:58;6.85;;;4.35;;
64467;SDS011;50853;46.836;16.820;2022-07-29T04:06:26;6.55;;;4.60;;
64467;SDS011;50853;46.836;16.820;2022-07-29T04:08:51;5.03;;;4.47;;
64467;SDS011;50853;46.836;16.820;2022-07-29T04:11:17;7.45;;;4.72;;
64467;SDS011;50853;46.836;16.820;2022-07-29T04:13:43;8.38;;;4.47;;
64467;SDS011;50853;46.836;16.820;2022-07-29T04:16:09;7.50;;;4.70;;
64467;SDS011;50853;46.836;16.820;2022-07-29T04:18:35;6.93;;;4.65;;
64467;SDS011;50853;46.836;16.820;2022-07-29T04:21:01;5.70;;;4.60;;
64467;SDS011;50853;46.836;16.820;2022-07-29T04:23:31;7.78;;;4.85;;
64467;SDS011;50853;46.836;16.820;2022-07-29T04:25:58;5.93;;;4.28;;
64467;SDS011;50853;46.836;16.820;2022-07-29T04:28:26;5.30;;;4.28;;
64467;SDS011;50853;46.836;16.820;2022-07-29T04:42:59;7.55;;;4.35;;
64467;SDS011;50853;46.836;16.820;2022-07-29T04:45:26;8.32;;;4.30;;
64467;SDS011;50853;46.836;16.820;2022-07-29T04:47:52;5.57;;;4.00;;
64467;SDS011;50853;46.836;16.820;2022-07-29T04:50:18;6.50;;;3.78;;
64467;SDS011;50853;46.836;16.820;2022-07-29T04:52:44;7.18;;;4.18;;
64467;SDS011;50853;46.836;16.820;2022-07-29T04:55:10;6.00;;;4.13;;
64467;SDS011;50853;46.836;16.820;2022-07-29T04:57:36;8.27;;;4.47;;
64467;SDS011;50853;46.836;16.820;2022-07-29T05:00:02;8.07;;;3.83;;
64467;SDS011;50853;46.836;16.820;2022-07-29T05:02:29;7.05;;;4.10;;
64467;SDS011;50853;46.836;16.820;2022-07-29T05:04:55;6.63;;;4.07;;
64467;SDS011;50853;46.836;16.820;2022-07-29T05:07:21;4.93;;;3.83;;
64467;SDS011;50853;46.836;16.820;2022-07-29T05:09:47;7.88;;;3.90;;
64467;SDS011;50853;46.836;16.820;2022-07-29T05:12:13;9.38;;;4.25;;
64467;SDS011;50853;46.836;16.820;2022-07-29T05:14:39;8.82;;;3.97;;
64467;SDS011;50853;46.836;16.820;2022-07-29T05:17:05;8.77;;;4.20;;
64467;SDS011;50853;46.836;16.820;2022-07-29T05:19:30;9.00;;;4.13;;
64467;SDS011;50853;46.836;16.820;2022-07-29T05:21:56;9.50;;;3.90;;
64467;SDS011;50853;46.836;16.820;2022-07-29T05:24:22;6.75;;;3.65;;
64467;SDS011;50853;46.836;16.820;2022-07-29T05:26:48;12.73;;;3.45;;
64467;SDS011;50853;46.836;16.820;2022-07-29T05:29:14;9.52;;;3.83;;
64467;SDS011;50853;46.836;16.820;2022-07-29T05:31:40;5.60;;;3.92;;
64467;SDS011;50853;46.836;16.820;2022-07-29T05:34:05;8.90;;;3.53;;
64467;SDS011;50853;46.836;16.820;2022-07-29T05:36:31;11.15;;;4.07;;
64467;SDS011;50853;46.836;16.820;2022-07-29T05:38:57;15.40;;;4.00;;
64467;SDS011;50853;46.836;16.820;2022-07-29T05:41:23;8.38;;;4.25;;
64467;SDS011;50853;46.836;16.820;2022-07-29T05:43:48;12.50;;;3.67;;
64467;SDS011;50853;46.836;16.820;2022-07-29T05:46:14;8.35;;;3.65;;
64467;SDS011;50853;46.836;16.820;2022-07-29T05:48:40;7.45;;;4.07;;
64467;SDS011;50853;46.836;16.820;2022-07-29T05:51:06;7.35;;;3.80;;
64467;SDS011;50853;46.836;16.820;2022-07-29T05:53:32;9.70;;;4.40;;
64467;SDS011;50853;46.836;16.820;2022-07-29T05:55:57;5.90;;;4.47;;
64467;SDS011;50853;46.836;16.820;2022-07-29T05:58:23;5.93;;;4.18;;
64467;SDS011;50853;46.836;16.820;2022-07-29T06:00:49;12.03;;;4.07;;
64467;SDS011;50853;46.836;16.820;2022-07-29T06:03:15;8.37;;;3.73;;
64467;SDS011;50853;46.836;16.820;2022-07-29T06:05:40;8.87;;;3.70;;
64467;SDS011;50853;46.836;16.820;2022-07-29T06:08:06;6.68;;;3.75;;
64467;SDS011;50853;46.836;16.820;2022-07-29T06:10:32;4.97;;;3.50;;
64467;SDS011;50853;46.836;16.820;2022-07-29T06:13:00;9.75;;;4.20;;
64467;SDS011;50853;46.836;16.820;2022-07-29T06:15:25;7.57;;;3.43;;
64467;SDS011;50853;46.836;16.820;2022-07-29T06:17:51;8.83;;;3.80;;
64467;SDS011;50853;46.836;16.820;2022-07-29T06:20:17;9.23;;;3.40;;
64467;SDS011;50853;46.836;16.820;2022-07-29T06:22:44;7.10;;;3.75;;
64467;SDS011;50853;46.836;16.820;2022-07-29T06:25:10;12.23;;;3.63;;
64467;SDS011;50853;46.836;16.820;2022-07-29T06:27:36;7.00;;;3.75;;
64467;SDS011;50853;46.836;16.820;2022-07-29T06:30:02;5.23;;;2.97;;
64467;SDS011;50853;46.836;16.820;2022-07-29T06:32:31;7.28;;;3.53;;
64467;SDS011;50853;46.836;16.820;2022-07-29T06:34:57;5.70;;;3.30;;
64467;SDS011;50853;46.836;16.820;2022-07-29T06:37:23;6.97;;;3.40;;
64467;SDS011;50853;46.836;16.820;2022-07-29T06:39:49;3.95;;;2.97;;
64467;SDS011;50853;46.836;16.820;2022-07-29T06:42:35;8.40;;;3.05;;
64467;SDS011;50853;46.836;16.820;2022-07-29T06:45:01;16.80;;;3.67;;
64467;SDS011;50853;46.836;16.820;2022-07-29T06:47:27;9.97;;;3.40;;
64467;SDS011;50853;46.836;16.820;2022-07-29T06:49:52;8.17;;;3.17;;
64467;SDS011;50853;46.836;16.820;2022-07-29T06:52:18;8.27;;;2.80;;
64467;SDS011;50853;46.836;16.820;2022-07-29T06:54:44;25.53;;;3.60;;
64467;SDS011;50853;46.836;16.820;2022-07-29T06:57:13;7.85;;;2.50;;
64467;SDS011;50853;46.836;16.820;2022-07-29T06:59:39;9.00;;;3.17;;
64467;SDS011;50853;46.836;16.820;2022-07-29T07:02:05;20.10;;;3.50;;
64467;SDS011;50853;46.836;16.820;2022-07-29T07:04:30;6.40;;;2.77;;
64467;SDS011;50853;46.836;16.820;2022-07-29T07:06:57;6.25;;;3.00;;
64467;SDS011;50853;46.836;16.820;2022-07-29T07:09:24;10.88;;;2.97;;
64467;SDS011;50853;46.836;16.820;2022-07-29T07:11:50;4.63;;;2.50;;
64467;SDS011;50853;46.836;16.820;2022-07-29T07:14:16;4.70;;;2.53;;
64467;SDS011;50853;46.836;16.820;2022-07-29T07:16:41;7.20;;;2.70;;
64467;SDS011;50853;46.836;16.820;2022-07-29T07:19:07;7.90;;;2.63;;
64467;SDS011;50853;46.836;16.820;2022-07-29T07:21:33;16.50;;;3.10;;
64467;SDS011;50853;46.836;16.820;2022-07-29T07:23:59;14.10;;;2.93;;
64467;SDS011;50853;46.836;16.820;2022-07-29T07:26:25;10.25;;;3.38;;
64467;SDS011;50853;46.836;16.820;2022-07-29T07:28:52;4.95;;;2.72;;
64467;SDS011;50853;46.836;16.820;2022-07-29T07:31:18;4.78;;;2.70;;
64467;SDS011;50853;46.836;16.820;2022-07-29T07:33:43;5.70;;;2.70;;
64467;SDS011;50853;46.836;16.820;2022-07-29T07:36:09;7.60;;;2.73;;
64467;SDS011;50853;46.836;16.820;2022-07-29T07:38:35;7.40;;;2.73;;
64467;SDS011;50853;46.836;16.820;2022-07-29T07:41:01;10.37;;;2.80;;
64467;SDS011;50853;46.836;16.820;2022-07-29T07:43:27;5.28;;;2.53;;
64467;SDS011;50853;46.836;16.820;2022-07-29T07:45:53;8.30;;;3.10;;
64467;SDS011;50853;46.836;16.820;2022-07-29T07:48:19;6.47;;;2.90;;
64467;SDS011;50853;46.836;16.820;2022-07-29T07:50:44;14.63;;;2.77;;
64467;SDS011;50853;46.836;16.820;2022-07-29T07:53:10;5.35;;;2.50;;
64467;SDS011;50853;46.836;16.820;2022-07-29T07:55:40;4.73;;;2.43;;
64467;SDS011;50853;46.836;16.820;2022-07-29T07:58:07;5.07;;;2.50;;
64467;SDS011;50853;46.836;16.820;2022-07-29T08:00:33;4.18;;;2.38;;
64467;SDS011;50853;46.836;16.820;2022-07-29T08:02:59;6.10;;;2.63;;
64467;SDS011;50853;46.836;16.820;2022-07-29T08:05:25;5.07;;;2.42;;
64467;SDS011;50853;46.836;16.820;2022-07-29T08:07:51;6.63;;;2.30;;
64467;SDS011;50853;46.836;16.820;2022-07-29T08:10:17;7.10;;;2.50;;
64467;SDS011;50853;46.836;16.820;2022-07-29T08:13:07;7.05;;;2.22;;
64467;SDS011;50853;46.836;16.820;2022-07-29T08:15:34;5.65;;;2.47;;
64467;SDS011;50853;46.836;16.820;2022-07-29T08:18:00;6.18;;;2.40;;
64467;SDS011;50853;46.836;16.820;2022-07-29T08:20:26;5.10;;;2.30;;
64467;SDS011;50853;46.836;16.820;2022-07-29T08:22:52;9.10;;;2.85;;
64467;SDS011;50853;46.836;16.820;2022-07-29T08:25:18;4.32;;;2.53;;
64467;SDS011;50853;46.836;16.820;2022-07-29T08:27:48;6.78;;;2.38;;
64467;SDS011;50853;46.836;16.820;2022-07-29T08:30:14;6.97;;;2.80;;
64467;SDS011;50853;46.836;16.820;2022-07-29T08:32:40;6.55;;;2.33;;
64467;SDS011;50853;46.836;16.820;2022-07-29T08:35:06;6.32;;;2.50;;
64467;SDS011;50853;46.836;16.820;2022-07-29T08:42:24;6.23;;;2.53;;
64467;SDS011;50853;46.836;16.820;2022-07-29T08:44:49;8.13;;;2.20;;
64467;SDS011;50853;46.836;16.820;2022-07-29T08:47:16;5.75;;;2.30;;
64467;SDS011;50853;46.836;16.820;2022-07-29T08:49:42;7.13;;;2.25;;
64467;SDS011;50853;46.836;16.820;2022-07-29T08:52:10;4.20;;;2.22;;
64467;SDS011;50853;46.836;16.820;2022-07-29T08:54:36;3.25;;;2.17;;
64467;SDS011;50853;46.836;16.820;2022-07-29T08:57:04;4.53;;;2.38;;
64467;SDS011;50853;46.836;16.820;2022-07-29T09:01:57;8.45;;;2.15;;
64467;SDS011;50853;46.836;16.820;2022-07-29T09:04:27;6.70;;;2.78;;
64467;SDS011;50853;46.836;16.820;2022-07-29T09:06:59;8.95;;;2.50;;
64467;SDS011;50853;46.836;16.820;2022-07-29T09:09:28;10.25;;;2.40;;
64467;SDS011;50853;46.836;16.820;2022-07-29T09:11:53;8.40;;;2.40;;
64467;SDS011;50853;46.836;16.820;2022-07-29T09:14:19;5.10;;;2.22;;
64467;SDS011;50853;46.836;16.820;2022-07-29T09:16:46;5.82;;;2.30;;
64467;SDS011;50853;46.836;16.820;2022-07-29T09:19:21;3.28;;;2.15;;
64467;SDS011;50853;46.836;16.820;2022-07-29T09:21:46;6.35;;;2.00;;
64467;SDS011;50853;46.836;16.820;2022-07-29T09:32:30;7.82;;;2.47;;
64467;SDS011;50853;46.836;16.820;2022-07-29T09:37:46;4.97;;;1.95;;
64467;SDS011;50853;46.836;16.820;2022-07-29T09:40:13;8.57;;;2.50;;
64467;SDS011;50853;46.836;16.820;2022-07-29T09:42:47;4.22;;;2.40;;
64467;SDS011;50853;46.836;16.820;2022-07-29T09:45:33;4.53;;;2.20;;
64467;SDS011;50853;46.836;16.820;2022-07-29T09:47:59;6.88;;;2.63;;
64467;SDS011;50853;46.836;16.820;2022-07-29T09:50:48;11.27;;;2.58;;
64467;SDS011;50853;46.836;16.820;2022-07-29T09:56:00;8.20;;;2.53;;
64467;SDS011;50853;46.836;16.820;2022-07-29T09:58:27;4.82;;;2.17;;
64467;SDS011;50853;46.836;16.820;2022-07-29T10:00:54;3.00;;;2.10;;
64467;SDS011;50853;46.836;16.820;2022-07-29T10:03:21;5.32;;;2.28;;
64467;SDS011;50853;46.836;16.820;2022-07-29T10:06:03;6.82;;;2.67;;
64467;SDS011;50853;46.836;16.820;2022-07-29T10:08:30;5.20;;;2.67;;
64467;SDS011;50853;46.836;16.820;2022-07-29T10:13:41;7.27;;;2.30;;
64467;SDS011;50853;46.836;16.820;2022-07-29T10:16:08;6.40;;;2.38;;
64467;SDS011;50853;46.836;16.820;2022-07-29T10:18:35;4.05;;;2.30;;
64467;SDS011;50853;46.836;16.820;2022-07-29T10:21:03;5.70;;;2.40;;
64467;SDS011;50853;46.836;16.820;2022-07-29T10:23:29;4.80;;;2.40;;
64467;SDS011;50853;46.836;16.820;2022-07-29T10:25:55;6.22;;;2.30;;
64467;SDS011;50853;46.836;16.820;2022-07-29T10:28:22;5.93;;;2.60;;
64467;SDS011;50853;46.836;16.820;2022-07-29T10:30:48;6.20;;;2.30;;
64467;SDS011;50853;46.836;16.820;2022-07-29T10:44:00;7.13;;;1.90;;
64467;SDS011;50853;46.836;16.820;2022-07-29T10:46:46;6.68;;;2.08;;
64467;SDS011;50853;46.836;16.820;2022-07-29T11:07:31;3.15;;;2.38;;
64467;SDS011;50853;46.836;16.820;2022-07-29T11:20:37;5.70;;;2.28;;
64467;SDS011;50853;46.836;16.820;2022-07-29T11:23:30;9.35;;;2.63;;
64467;SDS011;50853;46.836;16.820;2022-07-29T11:34:17;11.95;;;2.35;;
64467;SDS011;50853;46.836;16.820;2022-07-29T11:39:35;5.50;;;2.38;;
64467;SDS011;50853;46.836;16.820;2022-07-29T11:47:22;6.10;;;2.25;;
64467;SDS011;50853;46.836;16.820;2022-07-29T11:49:49;7.43;;;2.55;;
64467;SDS011;50853;46.836;16.820;2022-07-29T11:52:19;6.30;;;2.35;;
64467;SDS011;50853;46.836;16.820;2022-07-29T11:54:47;5.57;;;2.20;;
64467;SDS011;50853;46.836;16.820;2022-07-29T11:57:19;8.43;;;2.20;;
64467;SDS011;50853;46.836;16.820;2022-07-29T11:59:46;6.00;;;2.67;;
64467;SDS011;50853;46.836;16.820;2022-07-29T12:02:13;8.43;;;2.30;;
64467;SDS011;50853;46.836;16.820;2022-07-29T12:07:29;8.82;;;2.38;;
64467;SDS011;50853;46.836;16.820;2022-07-29T12:09:56;9.63;;;2.50;;
64467;SDS011;50853;46.836;16.820;2022-07-29T12:14:48;6.55;;;2.67;;
64467;SDS011;50853;46.836;16.820;2022-07-29T12:17:31;7.43;;;3.00;;
64467;SDS011;50853;46.836;16.820;2022-07-29T12:19:59;9.85;;;2.72;;
64467;SDS011;50853;46.836;16.820;2022-07-29T12:22:28;5.75;;;2.60;;
64467;SDS011;50853;46.836;16.820;2022-07-29T12:24:55;9.85;;;2.70;;
64467;SDS011;50853;46.836;16.820;2022-07-29T12:27:21;5.10;;;2.40;;
64467;SDS011;50853;46.836;16.820;2022-07-29T12:29:57;4.82;;;2.45;;
64467;SDS011;50853;46.836;16.820;2022-07-29T12:35:24;7.72;;;2.78;;
64467;SDS011;50853;46.836;16.820;2022-07-29T12:37:50;6.75;;;2.25;;
64467;SDS011;50853;46.836;16.820;2022-07-29T12:40:17;4.57;;;2.45;;
64467;SDS011;50853;46.836;16.820;2022-07-29T12:45:30;6.47;;;2.40;;
64467;SDS011;50853;46.836;16.820;2022-07-29T12:47:56;3.85;;;2.45;;
64467;SDS011;50853;46.836;16.820;2022-07-29T12:50:22;4.15;;;2.63;;
64467;SDS011;50853;46.836;16.820;2022-07-29T12:52:48;7.18;;;2.67;;
64467;SDS011;50853;46.836;16.820;2022-07-29T12:55:14;8.82;;;2.10;;
64467;SDS011;50853;46.836;16.820;2022-07-29T12:57:44;5.25;;;2.42;;
64467;SDS011;50853;46.836;16.820;2022-07-29T13:00:21;4.85;;;2.40;;
64467;SDS011;50853;46.836;16.820;2022-07-29T13:02:56;7.00;;;2.83;;
64467;SDS011;50853;46.836;16.820;2022-07-29T13:05:23;3.83;;;2.30;;
64467;SDS011;50853;46.836;16.820;2022-07-29T13:08:10;4.97;;;2.65;;
64467;SDS011;50853;46.836;16.820;2022-07-29T13:10:40;11.15;;;2.58;;
64467;SDS011;50853;46.836;16.820;2022-07-29T13:15:34;5.78;;;2.22;;
64467;SDS011;50853;46.836;16.820;2022-07-29T13:18:26;5.28;;;2.40;;
64467;SDS011;50853;46.836;16.820;2022-07-29T13:20:52;4.75;;;2.50;;
64467;SDS011;50853;46.836;16.820;2022-07-29T13:25:44;3.72;;;2.10;;
64467;SDS011;50853;46.836;16.820;2022-07-29T13:28:10;7.68;;;2.63;;
64467;SDS011;50853;46.836;16.820;2022-07-29T13:33:02;6.18;;;2.58;;
64467;SDS011;50853;46.836;16.820;2022-07-29T13:35:28;7.38;;;2.67;;
64467;SDS011;50853;46.836;16.820;2022-07-29T13:37:54;5.43;;;2.47;;
64467;SDS011;50853;46.836;16.820;2022-07-29T13:40:20;10.10;;;2.60;;
64467;SDS011;50853;46.836;16.820;2022-07-29T13:42:46;6.38;;;2.47;;
64467;SDS011;50853;46.836;16.820;2022-07-29T13:47:38;7.63;;;2.40;;
64467;SDS011;50853;46.836;16.820;2022-07-29T13:50:04;4.95;;;2.40;;
64467;SDS011;50853;46.836;16.820;2022-07-29T13:52:31;6.78;;;2.72;;
64467;SDS011;50853;46.836;16.820;2022-07-29T13:54:57;3.60;;;2.30;;
64467;SDS011;50853;46.836;16.820;2022-07-29T13:57:23;7.82;;;2.60;;
64467;SDS011;50853;46.836;16.820;2022-07-29T13:59:49;4.30;;;2.70;;
64467;SDS011;50853;46.836;16.820;2022-07-29T14:02:16;5.80;;;2.67;;
64467;SDS011;50853;46.836;16.820;2022-07-29T14:04:42;4.97;;;2.53;;
64467;SDS011;50853;46.836;16.820;2022-07-29T14:07:08;5.72;;;2.45;;
64467;SDS011;50853;46.836;16.820;2022-07-29T14:09:35;7.78;;;3.20;;
64467;SDS011;50853;46.836;16.820;2022-07-29T14:12:01;6.70;;;2.33;;
64467;SDS011;50853;46.836;16.820;2022-07-29T14:14:27;4.13;;;2.50;;
64467;SDS011;50853;46.836;16.820;2022-07-29T14:16:54;3.72;;;2.38;;
64467;SDS011;50853;46.836;16.820;2022-07-29T14:19:20;5.80;;;2.45;;
64467;SDS011;50853;46.836;16.820;2022-07-29T14:21:45;7.13;;;2.25;;
64467;SDS011;50853;46.836;16.820;2022-07-29T14:24:11;4.57;;;2.28;;
64467;SDS011;50853;46.836;16.820;2022-07-29T14:26:37;4.72;;;2.70;;
64467;SDS011;50853;46.836;16.820;2022-07-29T14:29:03;5.03;;;2.70;;
64467;SDS011;50853;46.836;16.820;2022-07-29T14:31:29;4.15;;;2.47;;
64467;SDS011;50853;46.836;16.820;2022-07-29T14:33:54;6.25;;;3.05;;
64467;SDS011;50853;46.836;16.820;2022-07-29T14:36:20;4.05;;;2.30;;
64467;SDS011;50853;46.836;16.820;2022-07-29T14:38:46;6.32;;;2.53;;
64467;SDS011;50853;46.836;16.820;2022-07-29T14:41:12;7.43;;;2.30;;
64467;SDS011;50853;46.836;16.820;2022-07-29T14:43:38;5.78;;;2.72;;
64467;SDS011;50853;46.836;16.820;2022-07-29T14:46:03;4.38;;;2.80;;
64467;SDS011;50853;46.836;16.820;2022-07-29T14:48:29;8.57;;;2.70;;
64467;SDS011;50853;46.836;16.820;2022-07-29T14:50:55;6.28;;;2.50;;
64467;SDS011;50853;46.836;16.820;2022-07-29T14:53:21;5.68;;;2.72;;
64467;SDS011;50853;46.836;16.820;2022-07-29T14:55:47;3.15;;;2.25;;
64467;SDS011;50853;46.836;16.820;2022-07-29T14:58:13;5.50;;;2.58;;
64467;SDS011;50853;46.836;16.820;2022-07-29T15:00:39;3.90;;;2.47;;
64467;SDS011;50853;46.836;16.820;2022-07-29T15:03:05;4.90;;;3.22;;
64467;SDS011;50853;46.836;16.820;2022-07-29T15:05:31;4.50;;;2.58;;
64467;SDS011;50853;46.836;16.820;2022-07-29T15:07:57;6.13;;;2.47;;
64467;SDS011;50853;46.836;16.820;2022-07-29T15:10:24;8.68;;;2.80;;
64467;SDS011;50853;46.836;16.820;2022-07-29T15:12:52;11.80;;;2.80;;
64467;SDS011;50853;46.836;16.820;2022-07-29T15:15:20;6.28;;;2.38;;
64467;SDS011;50853;46.836;16.820;2022-07-29T15:17:46;4.40;;;3.00;;
64467;SDS011;50853;46.836;16.820;2022-07-29T15:20:12;3.72;;;2.70;;
64467;SDS011;50853;46.836;16.820;2022-07-29T15:22:39;4.50;;;2.20;;
64467;SDS011;50853;46.836;16.820;2022-07-29T15:25:07;9.05;;;2.53;;
64467;SDS011;50853;46.836;16.820;2022-07-29T15:32:24;3.03;;;2.33;;
64467;SDS011;50853;46.836;16.820;2022-07-29T15:34:50;5.63;;;2.83;;
64467;SDS011;50853;46.836;16.820;2022-07-29T15:37:16;7.70;;;2.40;;
64467;SDS011;50853;46.836;16.820;2022-07-29T15:39:42;5.87;;;2.63;;
64467;SDS011;50853;46.836;16.820;2022-07-29T15:42:07;6.50;;;2.83;;
64467;SDS011;50853;46.836;16.820;2022-07-29T15:44:33;4.40;;;2.60;;
64467;SDS011;50853;46.836;16.820;2022-07-29T15:46:59;4.13;;;2.40;;
64467;SDS011;50853;46.836;16.820;2022-07-29T15:49:49;10.25;;;2.83;;
64467;SDS011;50853;46.836;16.820;2022-07-29T15:52:14;5.13;;;2.78;;
64467;SDS011;50853;46.836;16.820;2022-07-29T15:54:43;4.45;;;2.55;;
64467;SDS011;50853;46.836;16.820;2022-07-29T15:57:09;5.93;;;2.78;;
64467;SDS011;50853;46.836;16.820;2022-07-29T15:59:35;9.35;;;3.03;;
64467;SDS011;50853;46.836;16.820;2022-07-29T16:02:01;26.38;;;3.25;;
64467;SDS011;50853;46.836;16.820;2022-07-29T16:04:28;5.43;;;2.50;;
64467;SDS011;50853;46.836;16.820;2022-07-29T16:06:53;12.70;;;2.80;;
64467;SDS011;50853;46.836;16.820;2022-07-29T16:09:19;6.40;;;2.70;;
64467;SDS011;50853;46.836;16.820;2022-07-29T16:11:46;6.85;;;2.67;;
64467;SDS011;50853;46.836;16.820;2022-07-29T16:14:14;5.20;;;2.33;;
64467;SDS011;50853;46.836;16.820;2022-07-29T16:21:35;9.73;;;2.95;;
64467;SDS011;50853;46.836;16.820;2022-07-29T16:24:02;8.00;;;3.05;;
64467;SDS011;50853;46.836;16.820;2022-07-29T16:26:28;5.50;;;2.38;;
64467;SDS011;50853;46.836;16.820;2022-07-29T16:28:54;5.25;;;3.08;;
64467;SDS011;50853;46.836;16.820;2022-07-29T16:31:20;5.00;;;2.70;;
64467;SDS011;50853;46.836;16.820;2022-07-29T16:33:48;6.03;;;2.88;;
64467;SDS011;50853;46.836;16.820;2022-07-29T16:41:06;9.45;;;2.85;;
64467;SDS011;50853;46.836;16.820;2022-07-29T16:43:32;6.03;;;2.70;;
64467;SDS011;50853;46.836;16.820;2022-07-29T16:45:58;6.72;;;2.40;;
64467;SDS011;50853;46.836;16.820;2022-07-29T16:48:24;5.43;;;2.67;;
64467;SDS011;50853;46.836;16.820;2022-07-29T16:50:50;8.83;;;2.73;;
64467;SDS011;50853;46.836;16.820;2022-07-29T16:53:16;11.47;;;3.23;;
64467;SDS011;50853;46.836;16.820;2022-07-29T16:55:42;10.35;;;3.30;;
64467;SDS011;50853;46.836;16.820;2022-07-29T16:58:08;8.60;;;2.87;;
64467;SDS011;50853;46.836;16.820;2022-07-29T17:00:35;5.03;;;2.70;;
64467;SDS011;50853;46.836;16.820;2022-07-29T17:03:00;8.90;;;2.60;;
64467;SDS011;50853;46.836;16.820;2022-07-29T17:05:26;5.30;;;2.77;;